PILOTS ONLINE: 596    ATC ONLINE: 150

KSTS

Charles M. Schulz Sonoma County Airport

Location

IATA STS
City Santa Rosa
Country  United States
Latitude 38° 30' 32" N
Longitude 122° 48' 46" W
Elevation 128 ft
Type Medium Airport

Map

Weather

METAR
2014/09/22 18:00
KSTS 221800Z 07003KT 10SM SCT010 19/14 A3003 RMK AO2
TAF
2014/09/22 18:33
TAF KSTS 221731Z 2218/2318 14004KT P6SM BKN009 
     FM221815 18005KT P6SM SCT010 
     FM222000 18010KT P6SM SKC 
     FM230400 14005KT P6SM FEW010 
     FM230600 VRB03KT P6SM BKN010

Runways

01/19 5002 ft / 100 ft
14/32 5115 ft / 150 ft

Outbound flights

Callsign Flying to Pilot ATD/STD ETA Aircraft

Inbound flights

Callsign Flying from Pilot ATD ETA Aircraft